Time;durP1;ratioP1;P1;durP2;ratioP2;P2;SDS_P1;SDS_P2;PMS_P1;PMS_P2;Temp;Humidity;BMP_temperature;BMP_pressure;BME280_temperature;BME280_humidity;BME280_pressure;Samples;Min_cycle;Max_cycle;Signal;HPM_P1;HPM_P2
2023/06/29 00:00:21;;;;;;;4.97;2.60;;;21.20;97.80;;;;;;5031929;28;20104;-72
2023/06/29 00:02:48;;;;;;;5.70;2.55;;;21.30;97.80;;;;;;5031429;28;20391;-72
2023/06/29 00:05:14;;;;;;;9.98;3.50;;;21.20;97.80;;;;;;5031525;28;20033;-72
2023/06/29 00:07:40;;;;;;;5.70;2.25;;;21.10;97.90;;;;;;5032706;28;20091;-72
2023/06/29 00:10:07;;;;;;;6.90;2.38;;;21.20;97.80;;;;;;5031938;28;20041;-72
2023/06/29 00:12:33;;;;;;;7.45;3.20;;;21.10;97.90;;;;;;5031801;28;20032;-72
2023/06/29 00:14:59;;;;;;;7.50;2.97;;;21.10;97.90;;;;;;5032123;28;20022;-72
2023/06/29 00:17:25;;;;;;;6.72;3.10;;;21.20;98.00;;;;;;5031498;28;20372;-72
2023/06/29 00:19:51;;;;;;;5.75;2.30;;;21.20;97.90;;;;;;5031855;28;20068;-72
2023/06/29 00:22:18;;;;;;;9.82;3.20;;;21.20;98.10;;;;;;5032336;28;20514;-72
2023/06/29 00:24:44;;;;;;;6.65;2.38;;;21.10;98.30;;;;;;5030428;28;20026;-72
2023/06/29 00:27:14;;;;;;;11.60;3.58;;;21.10;98.40;;;;;;5031433;28;20036;-72
2023/06/29 00:29:41;;;;;;;6.32;2.53;;;21.10;98.30;;;;;;5032392;28;20065;-72
2023/06/29 00:32:08;;;;;;;4.60;2.50;;;21.20;98.30;;;;;;5031256;28;20045;-73
2023/06/29 00:34:33;;;;;;;7.38;2.80;;;21.30;98.40;;;;;;5030096;28;20065;-72
2023/06/29 00:36:59;;;;;;;7.40;3.08;;;21.30;98.30;;;;;;5030564;28;20077;-72
2023/06/29 00:39:25;;;;;;;5.35;2.53;;;21.40;98.30;;;;;;5031223;28;20124;-72
2023/06/29 00:41:54;;;;;;;6.57;4.03;;;21.30;98.20;;;;;;5030950;28;20040;-72
2023/06/29 00:44:21;;;;;;;10.57;3.33;;;21.30;98.40;;;;;;5029844;28;20503;-72
2023/06/29 00:46:48;;;;;;;7.07;2.83;;;21.30;98.40;;;;;;5031801;28;20087;-72
2023/06/29 00:49:14;;;;;;;6.63;2.92;;;21.30;98.40;;;;;;5030905;28;20033;-72
2023/06/29 00:51:39;;;;;;;6.65;3.20;;;21.30;98.30;;;;;;5033704;28;20112;-72
2023/06/29 00:54:05;;;;;;;6.22;2.50;;;21.30;98.40;;;;;;5029695;28;20426;-72
2023/06/29 00:56:33;;;;;;;5.63;3.15;;;21.30;98.30;;;;;;5029667;28;20490;-72
2023/06/29 00:58:59;;;;;;;5.78;2.58;;;21.30;98.30;;;;;;5030883;28;20042;-72
2023/06/29 01:01:27;;;;;;;7.45;2.72;;;21.30;98.40;;;;;;5031408;28;20025;-72
2023/06/29 01:03:56;;;;;;;4.55;2.92;;;21.30;98.30;;;;;;5030064;28;20021;-72
2023/06/29 01:06:31;;;;;;;6.40;2.88;;;21.20;98.50;;;;;;5031392;28;20025;-72
2023/06/29 01:09:05;;;;;;;9.07;3.10;;;21.20;98.50;;;;;;5028376;28;20483;-72
2023/06/29 01:11:32;;;;;;;8.15;2.92;;;21.20;98.40;;;;;;5027486;28;20036;-72
2023/06/29 01:14:01;;;;;;;5.53;2.92;;;21.10;98.60;;;;;;5036276;28;20057;-72
2023/06/29 01:16:28;;;;;;;6.68;2.75;;;21.20;98.60;;;;;;5030129;28;20491;-72
2023/06/29 01:18:56;;;;;;;5.22;2.80;;;21.10;98.50;;;;;;5029432;28;20029;-72
2023/06/29 01:21:22;;;;;;;7.45;3.13;;;21.10;98.60;;;;;;5027301;28;20025;-72
2023/06/29 01:23:53;;;;;;;9.43;2.83;;;21.20;98.50;;;;;;5030608;28;20124;-72
2023/06/29 01:26:19;;;;;;;5.22;3.22;;;21.10;98.50;;;;;;5029188;28;20522;-72
2023/06/29 01:28:46;;;;;;;6.30;3.20;;;21.10;98.60;;;;;;5030909;28;20099;-71
2023/06/29 01:31:12;;;;;;;5.90;2.72;;;21.10;98.60;;;;;;5029803;28;20033;-72
2023/06/29 01:33:38;;;;;;;6.00;2.50;;;21.20;98.70;;;;;;5030726;28;20034;-72
2023/06/29 01:36:19;;;;;;;5.55;3.13;;;21.20;98.50;;;;;;5029470;28;20059;-72
2023/06/29 01:39:01;;;;;;;5.30;2.85;;;21.20;98.50;;;;;;5028528;28;20032;-72
2023/06/29 01:41:32;;;;;;;4.63;2.92;;;21.20;98.50;;;;;;5030385;28;20036;-72
2023/06/29 01:44:01;;;;;;;9.05;3.13;;;21.20;98.60;;;;;;5030621;28;20036;-72
2023/06/29 01:46:28;;;;;;;4.50;2.70;;;21.10;98.80;;;;;;5030165;28;20033;-72
2023/06/29 01:48:54;;;;;;;6.20;3.45;;;21.00;98.90;;;;;;5026315;28;20042;-72
2023/06/29 01:51:21;;;;;;;7.97;2.78;;;20.90;99.00;;;;;;5026921;28;20037;-72
2023/06/29 01:53:49;;;;;;;7.03;3.08;;;20.90;99.00;;;;;;5030014;28;20498;-72
2023/06/29 01:56:15;;;;;;;7.18;3.10;;;20.80;99.20;;;;;;5030100;28;20021;-72
2023/06/29 01:58:40;;;;;;;6.47;3.20;;;20.80;99.20;;;;;;5031100;28;20029;-72
2023/06/29 02:01:06;;;;;;;5.90;3.08;;;20.90;99.20;;;;;;5027533;28;20049;-72
2023/06/29 02:03:32;;;;;;;7.30;2.60;;;21.10;98.90;;;;;;5029602;28;20029;-72
2023/06/29 02:05:57;;;;;;;7.47;3.13;;;21.00;98.90;;;;;;5029022;28;20581;-72
2023/06/29 02:08:23;;;;;;;7.75;3.90;;;20.90;99.20;;;;;;5029450;28;20060;-72
2023/06/29 02:10:49;;;;;;;4.95;3.10;;;20.70;99.40;;;;;;5029118;28;20060;-72
2023/06/29 02:13:14;;;;;;;7.05;3.15;;;20.80;99.60;;;;;;5027332;28;20021;-72
2023/06/29 02:15:40;;;;;;;6.72;3.47;;;21.00;99.50;;;;;;5029511;28;20541;-72
2023/06/29 02:18:05;;;;;;;6.78;3.42;;;20.90;99.30;;;;;;5029785;28;20021;-72
2023/06/29 02:20:31;;;;;;;5.88;3.47;;;20.80;99.40;;;;;;5028731;28;20029;-72
2023/06/29 02:22:57;;;;;;;5.78;2.60;;;20.90;99.50;;;;;;5026640;28;20033;-72
2023/06/29 02:25:22;;;;;;;5.43;3.20;;;20.80;99.50;;;;;;5029196;28;20120;-72
2023/06/29 02:27:48;;;;;;;6.35;3.45;;;20.80;99.70;;;;;;5030440;28;20081;-72
2023/06/29 02:30:14;;;;;;;6.13;3.00;;;20.70;99.80;;;;;;5028542;28;20049;-72
2023/06/29 02:32:39;;;;;;;7.97;3.20;;;20.70;99.80;;;;;;5029302;28;20033;-72
2023/06/29 02:35:06;;;;;;;8.63;3.38;;;20.60;99.90;;;;;;5026689;28;20036;-72
2023/06/29 02:37:31;;;;;;;5.55;3.38;;;20.60;99.90;;;;;;5029668;28;20033;-72
2023/06/29 02:39:57;;;;;;;8.23;3.55;;;20.60;99.90;;;;;;5029348;28;20025;-72
2023/06/29 02:42:23;;;;;;;6.53;3.05;;;20.60;99.90;;;;;;5026863;28;20033;-72
2023/06/29 02:44:48;;;;;;;5.85;3.28;;;20.60;99.90;;;;;;5028905;28;20029;-72
2023/06/29 02:47:14;;;;;;;8.60;2.80;;;20.60;99.90;;;;;;5029412;28;20029;-72
2023/06/29 02:49:40;;;;;;;6.40;2.90;;;20.70;99.90;;;;;;5028756;28;20052;-72
2023/06/29 02:52:05;;;;;;;6.45;3.33;;;20.70;99.90;;;;;;5028013;28;20029;-72
2023/06/29 02:54:31;;;;;;;8.65;2.80;;;20.60;99.90;;;;;;5029252;28;20112;-72
2023/06/29 02:56:57;;;;;;;6.78;3.03;;;20.60;99.90;;;;;;5029471;28;20029;-72
2023/06/29 02:59:22;;;;;;;5.15;2.90;;;20.60;99.90;;;;;;5027306;28;20032;-72
2023/06/29 03:01:48;;;;;;;6.80;3.35;;;20.60;99.90;;;;;;5029055;28;20451;-70
2023/06/29 03:04:14;;;;;;;7.68;3.60;;;20.50;99.90;;;;;;5025260;28;20067;-71
2023/06/29 03:06:39;;;;;;;10.05;3.60;;;20.60;99.90;;;;;;5024299;28;20034;-71
2023/06/29 03:09:06;;;;;;;6.10;2.88;;;20.60;99.90;;;;;;5014333;28;20049;-71
2023/06/29 03:11:32;;;;;;;5.55;3.28;;;20.60;99.90;;;;;;5025661;28;20021;-71
2023/06/29 03:13:57;;;;;;;7.80;3.42;;;20.70;99.90;;;;;;5021534;28;20108;-71
2023/06/29 03:16:23;;;;;;;5.50;3.40;;;20.60;99.90;;;;;;5019354;28;20472;-71
2023/06/29 03:18:49;;;;;;;5.75;2.95;;;20.60;99.90;;;;;;5019929;28;20021;-71
2023/06/29 03:21:21;;;;;;;6.75;3.03;;;20.40;99.90;;;;;;5021816;28;20120;-71
2023/06/29 03:23:46;;;;;;;5.80;3.78;;;20.50;99.90;;;;;;5023398;28;20369;-71
2023/06/29 03:26:15;;;;;;;5.22;2.70;;;20.50;99.90;;;;;;5024124;28;20049;-71
2023/06/29 03:28:41;;;;;;;5.45;3.67;;;20.60;99.90;;;;;;5018183;28;20042;-71
2023/06/29 03:31:07;;;;;;;6.30;3.70;;;20.50;99.90;;;;;;5021766;28;20042;-71
2023/06/29 03:33:32;;;;;;;8.60;3.47;;;20.40;99.90;;;;;;5027510;28;20022;-71
2023/06/29 03:35:58;;;;;;;7.72;3.90;;;20.40;99.90;;;;;;5022950;28;20049;-71
2023/06/29 03:38:23;;;;;;;6.20;3.42;;;20.40;99.90;;;;;;5027151;28;20034;-71
2023/06/29 03:40:49;;;;;;;4.88;3.05;;;20.40;99.90;;;;;;5025982;28;20044;-71
2023/06/29 03:43:15;;;;;;;5.93;3.58;;;20.40;99.90;;;;;;5025342;28;20783;-71
2023/06/29 03:45:40;;;;;;;8.05;3.50;;;20.40;99.90;;;;;;5025395;28;20037;-71
2023/06/29 03:48:06;;;;;;;5.95;3.22;;;20.40;99.90;;;;;;5022121;28;20036;-71
2023/06/29 03:50:32;;;;;;;10.43;3.63;;;20.40;99.90;;;;;;5025568;28;20032;-71
2023/06/29 03:52:57;;;;;;;7.65;3.58;;;20.50;99.90;;;;;;5025051;28;20144;-71
2023/06/29 03:55:26;;;;;;;5.47;3.25;;;20.50;99.90;;;;;;5025876;28;20029;-71
2023/06/29 03:57:51;;;;;;;4.57;2.72;;;20.50;99.90;;;;;;5024048;28;20102;-71
2023/06/29 04:00:17;;;;;;;9.20;3.30;;;20.50;99.90;;;;;;5025030;28;20918;-71
2023/06/29 04:02:43;;;;;;;6.50;3.53;;;20.60;99.90;;;;;;5025536;28;20347;-71
2023/06/29 04:05:09;;;;;;;5.97;3.20;;;20.70;99.90;;;;;;5028480;28;20021;-71
2023/06/29 04:07:35;;;;;;;7.15;3.25;;;20.60;99.90;;;;;;5027616;28;20714;-71
2023/06/29 04:10:01;;;;;;;6.88;3.92;;;20.60;99.90;;;;;;5027691;28;20124;-71
2023/06/29 04:12:27;;;;;;;5.80;3.35;;;20.50;99.90;;;;;;5026345;28;20025;-71
2023/06/29 04:14:53;;;;;;;9.13;3.78;;;20.40;99.90;;;;;;5023265;28;20044;-71
2023/06/29 04:17:18;;;;;;;6.10;3.03;;;20.50;99.90;;;;;;5027344;28;20029;-71
2023/06/29 04:19:44;;;;;;;8.48;4.05;;;20.40;99.90;;;;;;5024384;28;20476;-71
2023/06/29 04:22:10;;;;;;;7.05;2.70;;;20.50;99.90;;;;;;5026865;28;20368;-71
2023/06/29 04:24:35;;;;;;;7.38;3.22;;;20.60;99.90;;;;;;5027673;28;20033;-71
2023/06/29 04:27:01;;;;;;;5.78;3.85;;;20.50;99.90;;;;;;5026401;28;20025;-71
2023/06/29 04:29:27;;;;;;;5.47;3.35;;;20.50;99.90;;;;;;5024603;28;20053;-71
2023/06/29 04:31:54;;;;;;;5.00;3.08;;;20.60;99.90;;;;;;5022512;28;20080;-71
2023/06/29 04:34:23;;;;;;;6.88;3.55;;;20.50;99.90;;;;;;5022010;28;20063;-72
2023/06/29 04:36:48;;;;;;;6.43;3.25;;;20.60;99.90;;;;;;5023450;28;20036;-72
2023/06/29 04:39:14;;;;;;;8.25;3.35;;;20.50;99.90;;;;;;5024317;28;20033;-73
2023/06/29 04:41:41;;;;;;;7.68;3.13;;;20.70;99.90;;;;;;5024487;28;20040;-72
2023/06/29 04:44:08;;;;;;;6.45;3.55;;;20.70;99.90;;;;;;5023272;28;20033;-73
2023/06/29 04:46:38;;;;;;;6.38;3.45;;;20.80;99.90;;;;;;5025731;28;20124;-72
2023/06/29 04:49:07;;;;;;;7.03;3.60;;;20.80;99.90;;;;;;5026617;28;20037;-72
2023/06/29 04:51:37;;;;;;;6.30;3.47;;;20.80;99.90;;;;;;5027087;28;20153;-73
2023/06/29 04:54:05;;;;;;;6.72;3.55;;;20.90;99.90;;;;;;5024543;28;20033;-73
2023/06/29 04:56:31;;;;;;;17.77;5.25;;;21.00;99.90;;;;;;5021677;28;20029;-72
2023/06/29 04:58:58;;;;;;;5.50;3.45;;;20.90;99.90;;;;;;5025543;28;20036;-72
2023/06/29 05:01:24;;;;;;;6.55;3.47;;;21.00;99.90;;;;;;5023168;28;20033;-73
2023/06/29 05:03:49;;;;;;;11.93;3.65;;;21.00;99.90;;;;;;5024098;28;20048;-72
2023/06/29 05:06:15;;;;;;;11.05;3.90;;;20.90;99.90;;;;;;5027219;28;20033;-72
2023/06/29 05:08:41;;;;;;;7.03;3.58;;;20.80;99.90;;;;;;5021883;28;20033;-73
2023/06/29 05:11:06;;;;;;;9.10;3.70;;;20.80;99.90;;;;;;5012434;28;20116;-72
2023/06/29 05:13:36;;;;;;;9.85;3.72;;;20.90;99.90;;;;;;5024113;28;20032;-72
2023/06/29 05:16:04;;;;;;;6.28;3.60;;;21.00;99.90;;;;;;5023755;28;20033;-72
2023/06/29 05:18:30;;;;;;;6.28;3.70;;;20.90;99.90;;;;;;5023301;28;20029;-72
2023/06/29 05:20:57;;;;;;;8.43;4.72;;;20.80;99.90;;;;;;5023602;28;20029;-72
2023/06/29 05:23:23;;;;;;;7.13;4.47;;;21.00;99.90;;;;;;5026545;28;20041;-72
2023/06/29 05:25:49;;;;;;;8.30;4.75;;;21.00;99.90;;;;;;5026156;28;20030;-72
2023/06/29 05:28:15;;;;;;;9.43;4.50;;;21.00;99.90;;;;;;5019211;28;20091;-73
2023/06/29 05:30:41;;;;;;;11.88;3.95;;;21.00;99.90;;;;;;5019056;28;20037;-73
2023/06/29 05:33:06;;;;;;;13.15;4.05;;;21.00;99.90;;;;;;5021380;28;20030;-73
2023/06/29 05:35:34;;;;;;;6.13;3.72;;;20.90;99.90;;;;;;5023121;28;20029;-72
2023/06/29 05:38:00;;;;;;;6.82;3.83;;;21.00;99.90;;;;;;5019986;28;20029;-73
2023/06/29 05:40:26;;;;;;;8.80;4.10;;;20.90;99.90;;;;;;5020754;28;20025;-73
2023/06/29 05:42:51;;;;;;;6.00;3.72;;;20.90;99.90;;;;;;5020598;28;20041;-72
2023/06/29 05:45:17;;;;;;;5.03;3.58;;;21.00;99.90;;;;;;5021485;28;20092;-73
2023/06/29 05:47:43;;;;;;;6.70;3.97;;;21.10;99.90;;;;;;5019430;28;20032;-73
2023/06/29 05:50:09;;;;;;;9.23;4.75;;;21.10;99.90;;;;;;5016039;28;20445;-73
2023/06/29 05:52:35;;;;;;;9.48;4.72;;;21.20;99.90;;;;;;5014907;28;20099;-73
2023/06/29 05:55:02;;;;;;;7.95;4.85;;;21.10;99.90;;;;;;5012484;28;20048;-73
2023/06/29 05:57:27;;;;;;;8.60;4.38;;;21.00;99.90;;;;;;5015081;28;20518;-72
2023/06/29 05:59:53;;;;;;;9.63;4.97;;;21.00;99.90;;;;;;5016335;28;20030;-73
2023/06/29 06:02:19;;;;;;;9.73;4.50;;;21.00;99.90;;;;;;5016149;28;20078;-73
2023/06/29 06:04:45;;;;;;;6.60;4.30;;;21.30;99.90;;;;;;5018114;28;20043;-73
2023/06/29 06:07:13;;;;;;;6.55;3.80;;;21.40;99.90;;;;;;5022254;28;20056;-73
2023/06/29 06:09:39;;;;;;;10.07;5.80;;;21.60;99.90;;;;;;5022088;28;20184;-72
2023/06/29 06:12:05;;;;;;;8.15;4.45;;;21.70;99.90;;;;;;5022706;28;20169;-74
2023/06/29 06:14:31;;;;;;;5.22;3.53;;;21.80;99.90;;;;;;5020696;28;20033;-72
2023/06/29 06:16:57;;;;;;;17.00;4.93;;;21.90;99.90;;;;;;5018570;28;20032;-72
2023/06/29 06:19:22;;;;;;;8.57;4.15;;;22.10;99.90;;;;;;5021855;28;20064;-73
2023/06/29 06:21:48;;;;;;;6.97;3.85;;;22.00;99.90;;;;;;5021287;28;20025;-73
2023/06/29 06:24:14;;;;;;;10.93;5.15;;;21.90;99.90;;;;;;5020910;28;20129;-72
2023/06/29 06:26:39;;;;;;;10.35;4.63;;;21.80;99.90;;;;;;5021937;28;20056;-72
2023/06/29 06:29:05;;;;;;;10.90;4.70;;;21.80;99.90;;;;;;5021116;28;20049;-73
2023/06/29 06:31:30;;;;;;;7.15;4.22;;;21.90;99.90;;;;;;5020719;28;20051;-72
2023/06/29 06:33:57;;;;;;;8.75;4.40;;;21.80;99.90;;;;;;5022360;28;20037;-72
2023/06/29 06:36:24;;;;;;;9.35;4.78;;;21.80;99.90;;;;;;5021744;28;20116;-72
2023/06/29 06:38:50;;;;;;;8.38;4.53;;;21.90;99.90;;;;;;5020087;28;20148;-73
2023/06/29 06:41:16;;;;;;;13.50;3.97;;;21.90;99.90;;;;;;5020541;28;20025;-72
2023/06/29 06:43:41;;;;;;;8.38;4.43;;;21.90;99.90;;;;;;5021207;28;20038;-72
2023/06/29 06:46:07;;;;;;;8.30;4.15;;;21.90;99.90;;;;;;5020736;28;20463;-73
2023/06/29 06:48:33;;;;;;;7.25;3.83;;;21.90;99.90;;;;;;5021845;28;20041;-72
2023/06/29 06:50:59;;;;;;;8.27;4.57;;;21.80;99.90;;;;;;5016929;28;20442;-73
2023/06/29 06:53:24;;;;;;;8.13;4.55;;;21.70;99.90;;;;;;5021269;28;20112;-73
2023/06/29 06:55:50;;;;;;;7.45;4.18;;;22.00;99.60;;;;;;5022740;28;20044;-72
2023/06/29 06:58:16;;;;;;;17.35;4.00;;;22.20;99.40;;;;;;5023926;28;20088;-72
2023/06/29 07:00:41;;;;;;;7.38;4.20;;;22.40;98.60;;;;;;5024262;28;20078;-72
2023/06/29 07:03:07;;;;;;;7.28;3.90;;;22.30;98.80;;;;;;5024510;28;20086;-72
2023/06/29 07:05:33;;;;;;;11.57;3.95;;;22.60;98.20;;;;;;5024557;28;20121;-73
2023/06/29 07:07:59;;;;;;;7.65;3.72;;;22.70;97.90;;;;;;5029642;28;20041;-73
2023/06/29 07:10:25;;;;;;;10.70;3.83;;;22.60;98.20;;;;;;5024792;28;20029;-72
2023/06/29 07:12:50;;;;;;;10.48;4.03;;;22.60;98.30;;;;;;5024548;28;20051;-72
2023/06/29 07:15:16;;;;;;;10.32;4.00;;;22.40;97.90;;;;;;5021802;28;20032;-72
2023/06/29 07:17:42;;;;;;;10.38;3.70;;;22.40;98.20;;;;;;5021692;28;20045;-72
2023/06/29 07:20:08;;;;;;;5.85;3.45;;;22.40;98.10;;;;;;5017247;28;20563;-72
2023/06/29 07:22:34;;;;;;;9.23;3.40;;;22.60;98.10;;;;;;5020910;28;20133;-72
2023/06/29 07:25:00;;;;;;;8.18;3.85;;;22.70;98.00;;;;;;5020508;28;20562;-72
2023/06/29 07:27:26;;;;;;;10.40;4.00;;;22.90;98.10;;;;;;5020072;28;20026;-72
2023/06/29 07:29:52;;;;;;;6.25;3.92;;;23.00;98.10;;;;;;5020026;28;20049;-72
2023/06/29 07:32:17;;;;;;;6.38;4.03;;;22.80;97.80;;;;;;5020605;28;20656;-72
2023/06/29 07:34:43;;;;;;;6.95;3.63;;;22.80;97.80;;;;;;5020832;28;20387;-72
2023/06/29 07:37:09;;;;;;;7.88;3.72;;;23.00;98.10;;;;;;5019782;28;20037;-72
2023/06/29 07:39:35;;;;;;;6.70;3.53;;;23.10;98.00;;;;;;5015634;28;20103;-72
2023/06/29 07:42:01;;;;;;;6.75;3.90;;;23.20;97.40;;;;;;5020582;28;20131;-72
2023/06/29 07:44:27;;;;;;;7.05;3.92;;;23.10;97.20;;;;;;5018161;28;20869;-73
2023/06/29 07:46:53;;;;;;;5.28;3.85;;;23.30;97.20;;;;;;5020628;28;20033;-72
2023/06/29 07:49:18;;;;;;;6.57;3.97;;;23.70;97.10;;;;;;5020095;28;20559;-72
2023/06/29 07:51:45;;;;;;;6.57;4.20;;;24.00;95.90;;;;;;5020147;28;20030;-72
2023/06/29 07:54:12;;;;;;;8.60;3.58;;;24.20;95.80;;;;;;5020529;28;20493;-72
2023/06/29 07:56:38;;;;;;;6.43;3.95;;;24.70;95.20;;;;;;5021135;28;20028;-72
2023/06/29 07:59:04;;;;;;;10.57;3.40;;;25.50;95.20;;;;;;5020906;28;20037;-73
2023/06/29 08:01:30;;;;;;;7.22;3.42;;;26.20;95.10;;;;;;5021182;28;20033;-72
2023/06/29 08:03:56;;;;;;;5.30;3.13;;;26.40;94.70;;;;;;5020012;28;20069;-73
2023/06/29 08:06:21;;;;;;;5.72;3.40;;;26.00;94.70;;;;;;5019304;28;20025;-72
2023/06/29 08:08:48;;;;;;;9.75;3.58;;;25.70;94.60;;;;;;5020927;28;20391;-73
2023/06/29 08:11:14;;;;;;;6.65;4.20;;;25.50;95.00;;;;;;5020927;28;20073;-73
2023/06/29 08:13:41;;;;;;;10.20;3.60;;;25.20;95.50;;;;;;5019598;28;20664;-72
2023/06/29 08:16:07;;;;;;;8.02;3.80;;;24.90;95.60;;;;;;5017927;28;20113;-72
2023/06/29 08:18:32;;;;;;;10.73;4.32;;;24.80;95.50;;;;;;5019214;28;20450;-73
2023/06/29 08:20:58;;;;;;;10.05;3.70;;;24.80;96.30;;;;;;5023684;28;20033;-72
2023/06/29 08:23:24;;;;;;;7.82;3.78;;;24.90;96.10;;;;;;5022291;28;20060;-72
2023/06/29 08:25:49;;;;;;;10.55;4.38;;;24.70;95.70;;;;;;5023717;28;20112;-73
2023/06/29 08:28:15;;;;;;;6.53;3.22;;;24.30;96.30;;;;;;5024639;28;20079;-72
2023/06/29 08:30:41;;;;;;;6.22;3.90;;;24.30;96.50;;;;;;5023379;28;20021;-72
2023/06/29 08:33:06;;;;;;;6.38;4.13;;;24.30;96.70;;;;;;5019790;28;20030;-72
2023/06/29 08:35:33;;;;;;;6.32;3.70;;;24.50;96.80;;;;;;5023790;28;20029;-73
2023/06/29 08:37:58;;;;;;;8.23;3.70;;;24.40;96.90;;;;;;5024253;28;20029;-73
2023/06/29 08:40:26;;;;;;;5.05;3.38;;;24.30;96.30;;;;;;5024219;28;20474;-73
2023/06/29 08:42:52;;;;;;;7.60;3.80;;;24.30;97.00;;;;;;5027636;28;20057;-73
2023/06/29 08:45:18;;;;;;;8.43;3.97;;;24.40;96.70;;;;;;5021286;28;20045;-73
2023/06/29 08:47:49;;;;;;;7.82;3.95;;;24.30;96.50;;;;;;5156089;23;20067;-74
2023/06/29 08:50:16;;;;;;;8.25;4.20;;;24.50;96.40;;;;;;5031329;28;20336;-74
2023/06/29 08:52:43;;;;;;;7.72;4.00;;;24.80;96.90;;;;;;5022392;28;20037;-74
2023/06/29 08:55:09;;;;;;;6.20;4.20;;;24.80;96.40;;;;;;5031666;28;20025;-74
2023/06/29 08:57:36;;;;;;;5.72;3.95;;;24.80;96.50;;;;;;5028806;28;20494;-75
2023/06/29 09:00:06;;;;;;;7.40;4.07;;;24.90;96.10;;;;;;5034563;28;20060;-77
2023/06/29 09:02:33;;;;;;;8.57;4.43;;;24.90;96.20;;;;;;5031983;28;20055;-76
2023/06/29 09:04:59;;;;;;;8.55;4.00;;;24.80;96.30;;;;;;5040133;28;20024;-77
2023/06/29 09:07:25;;;;;;;7.45;3.97;;;24.50;96.10;;;;;;5048440;28;20025;-76
2023/06/29 09:09:51;;;;;;;6.88;3.95;;;24.70;95.90;;;;;;5048064;28;20063;-76
2023/06/29 09:12:17;;;;;;;6.88;4.78;;;24.70;95.80;;;;;;5042661;28;20394;-76
2023/06/29 09:14:47;;;;;;;6.57;3.60;;;24.70;96.00;;;;;;5043836;28;20029;-75
2023/06/29 09:17:18;;;;;;;7.78;4.00;;;24.80;95.60;;;;;;5044175;28;20070;-75
2023/06/29 09:19:56;;;;;;;9.95;4.40;;;24.10;96.20;;;;;;5040993;28;20378;-75
2023/06/29 09:22:25;;;;;;;6.32;3.88;;;24.40;96.40;;;;;;5043942;28;20029;-77
2023/06/29 09:24:58;;;;;;;6.78;3.40;;;24.70;96.40;;;;;;5047304;28;20025;-76
2023/06/29 09:27:26;;;;;;;8.90;3.50;;;24.80;96.40;;;;;;5044363;28;20037;-76
2023/06/29 09:29:53;;;;;;;7.30;3.17;;;25.00;96.30;;;;;;5043946;28;20060;-77
2023/06/29 09:32:19;;;;;;;6.32;2.55;;;24.90;95.30;;;;;;5047433;28;20027;-76
2023/06/29 09:34:46;;;;;;;7.60;2.53;;;24.40;93.70;;;;;;5046629;28;20036;-76
2023/06/29 09:37:16;;;;;;;3.78;2.28;;;24.70;94.10;;;;;;5043927;28;20104;-77
2023/06/29 09:39:58;;;;;;;4.85;2.10;;;25.00;94.00;;;;;;5048268;28;20025;-75
2023/06/29 09:42:27;;;;;;;3.38;1.75;;;25.10;92.70;;;;;;5041860;28;20074;-75
2023/06/29 09:44:53;;;;;;;3.88;1.80;;;25.40;91.70;;;;;;5038374;28;20051;-75
2023/06/29 09:47:23;;;;;;;2.78;1.50;;;25.70;91.50;;;;;;5041006;28;20070;-77
2023/06/29 09:49:49;;;;;;;3.97;1.35;;;26.00;90.90;;;;;;5036898;28;20049;-75
2023/06/29 09:52:16;;;;;;;1.67;0.90;;;26.20;90.20;;;;;;5039249;28;20184;-74
2023/06/29 09:54:43;;;;;;;3.03;1.38;;;26.10;90.10;;;;;;5033056;28;20119;-73
2023/06/29 09:57:12;;;;;;;4.22;1.80;;;25.90;90.20;;;;;;5037981;28;20029;-75
2023/06/29 09:59:44;;;;;;;4.25;2.13;;;25.80;90.30;;;;;;5047105;28;20716;-74
2023/06/29 10:02:14;;;;;;;3.78;2.05;;;26.00;90.50;;;;;;5038167;28;20567;-74
2023/06/29 10:04:41;;;;;;;5.03;2.20;;;26.20;91.00;;;;;;5046336;28;20033;-75
2023/06/29 10:07:18;;;;;;;4.47;2.17;;;26.10;91.10;;;;;;5042638;28;20032;-76
2023/06/29 10:09:49;;;;;;;6.68;2.17;;;26.40;90.60;;;;;;5036896;28;20032;-75
2023/06/29 10:12:17;;;;;;;9.50;2.13;;;26.80;90.30;;;;;;5038257;28;20487;-77
2023/06/29 10:14:44;;;;;;;3.30;1.65;;;27.10;89.40;;;;;;5036799;28;20045;-78
2023/06/29 10:17:24;;;;;;;5.18;2.05;;;27.50;87.70;;;;;;5029974;28;20025;-78
2023/06/29 10:19:52;;;;;;;3.22;1.80;;;27.90;86.60;;;;;;5035176;28;20033;-76
2023/06/29 10:22:18;;;;;;;10.75;2.40;;;28.30;87.40;;;;;;5038951;28;20017;-78
2023/06/29 10:24:57;;;;;;;3.45;1.45;;;28.50;86.70;;;;;;5036097;28;20078;-75
2023/06/29 10:27:26;;;;;;;9.02;1.55;;;28.00;85.60;;;;;;5045284;28;20044;-75
2023/06/29 10:29:52;;;;;;;4.50;1.58;;;28.10;84.20;;;;;;5043077;28;20624;-77
2023/06/29 10:32:38;;;;;;;4.15;1.77;;;27.90;84.50;;;;;;5036645;28;20041;-78
2023/06/29 10:35:09;;;;;;;5.05;1.70;;;28.30;85.00;;;;;;5036978;28;20083;-77
2023/06/29 10:37:42;;;;;;;4.20;1.98;;;28.00;85.70;;;;;;5044448;28;20094;-77
2023/06/29 10:40:10;;;;;;;4.25;2.30;;;27.90;86.00;;;;;;5042721;28;20561;-77
2023/06/29 10:42:39;;;;;;;2.83;1.30;;;28.00;86.70;;;;;;5043788;28;20547;-78
2023/06/29 10:45:25;;;;;;;5.05;1.77;;;28.60;86.60;;;;;;5044275;28;20032;-76
2023/06/29 10:47:56;;;;;;;5.63;1.92;;;28.90;84.60;;;;;;5031795;28;20506;-77
2023/06/29 10:50:36;;;;;;;6.32;1.67;;;28.60;84.00;;;;;;5036165;28;20046;-76
2023/06/29 10:53:07;;;;;;;3.53;1.73;;;28.20;84.30;;;;;;5035134;28;20153;-76
2023/06/29 10:55:59;;;;;;;3.40;1.67;;;27.90;85.40;;;;;;5041915;28;20506;-78
2023/06/29 10:58:36;;;;;;;7.82;2.22;;;28.30;84.10;;;;;;5043127;28;20119;-75
2023/06/29 11:01:02;;;;;;;3.80;1.65;;;28.60;83.70;;;;;;5039331;28;20482;-74
2023/06/29 11:03:28;;;;;;;8.25;1.73;;;28.70;84.10;;;;;;5039606;28;20096;-75
2023/06/29 11:05:54;;;;;;;5.40;2.00;;;28.60;82.70;;;;;;5045465;28;20037;-76
2023/06/29 11:08:22;;;;;;;3.58;1.45;;;28.80;83.50;;;;;;5035520;28;20033;-75
2023/06/29 11:10:48;;;;;;;3.53;1.55;;;28.90;82.70;;;;;;5033913;28;20040;-76
2023/06/29 11:13:14;;;;;;;4.95;1.60;;;28.80;82.80;;;;;;5037933;28;23372;-75
2023/06/29 11:15:40;;;;;;;3.50;1.83;;;29.30;82.70;;;;;;5038573;28;20036;-74
2023/06/29 11:18:08;;;;;;;3.10;1.20;;;29.30;81.70;;;;;;5036365;28;20040;-76
2023/06/29 11:20:37;;;;;;;3.55;1.50;;;29.10;81.10;;;;;;5042341;28;20036;-75
2023/06/29 11:23:03;;;;;;;4.00;1.58;;;29.20;82.10;;;;;;5039472;28;20075;-77
2023/06/29 11:25:29;;;;;;;3.17;1.42;;;29.50;80.90;;;;;;5037037;28;20032;-77
2023/06/29 11:27:56;;;;;;;3.35;1.73;;;29.30;81.10;;;;;;5102164;22;20050;-71
2023/06/29 11:30:22;;;;;;;4.85;1.80;;;29.10;81.60;;;;;;4988751;28;20034;-71
2023/06/29 11:32:50;;;;;;;3.95;1.77;;;28.90;81.60;;;;;;4994603;28;20485;-72
2023/06/29 11:35:17;;;;;;;3.08;1.70;;;28.50;80.90;;;;;;4992990;28;20113;-72
2023/06/29 11:37:43;;;;;;;3.83;1.63;;;28.60;81.30;;;;;;4995634;28;20101;-71
2023/06/29 11:40:23;;;;;;;3.55;1.52;;;28.50;81.90;;;;;;4996614;28;20117;-71
2023/06/29 11:42:49;;;;;;;3.75;1.70;;;28.90;81.10;;;;;;4996078;28;20056;-71
2023/06/29 11:45:17;;;;;;;3.30;1.70;;;29.00;81.50;;;;;;4996585;28;20026;-72
2023/06/29 11:47:51;;;;;;;3.95;2.55;;;29.10;81.00;;;;;;4997729;28;20042;-71
2023/06/29 11:50:17;;;;;;;5.80;2.08;;;29.00;80.40;;;;;;4997467;28;20030;-71
2023/06/29 11:52:47;;;;;;;3.92;1.85;;;29.20;82.00;;;;;;4991507;28;20045;-71
2023/06/29 11:55:15;;;;;;;2.30;1.40;;;29.30;81.10;;;;;;5001807;28;20037;-71
2023/06/29 11:57:43;;;;;;;2.92;1.52;;;28.90;79.90;;;;;;5003436;28;20120;-71
2023/06/29 12:00:15;;;;;;;3.63;2.00;;;28.60;81.70;;;;;;5002386;28;20033;-71
2023/06/29 12:02:41;;;;;;;4.18;1.88;;;29.00;81.20;;;;;;4998970;28;20045;-71
2023/06/29 12:05:08;;;;;;;3.90;1.85;;;29.10;80.50;;;;;;4995792;28;20042;-71
2023/06/29 12:07:43;;;;;;;3.88;1.50;;;29.20;80.20;;;;;;5000594;28;20061;-71
2023/06/29 12:10:24;;;;;;;4.80;1.95;;;29.20;80.90;;;;;;4999622;28;20120;-71
2023/06/29 12:13:00;;;;;;;3.75;1.40;;;29.10;80.40;;;;;;4998217;28;20084;-71
2023/06/29 12:15:27;;;;;;;4.28;1.70;;;28.80;81.00;;;;;;5000535;28;20116;-71
2023/06/29 12:18:05;;;;;;;3.35;1.42;;;29.00;81.20;;;;;;4998874;28;20097;-71
2023/06/29 12:20:41;;;;;;;2.97;1.40;;;29.00;80.50;;;;;;5002656;28;20064;-72
2023/06/29 12:23:07;;;;;;;3.85;2.20;;;29.20;81.30;;;;;;5004639;28;20053;-71
2023/06/29 12:25:41;;;;;;;3.53;1.80;;;29.20;81.00;;;;;;5004166;28;20128;-71
2023/06/29 12:28:07;;;;;;;3.00;1.70;;;29.40;81.00;;;;;;5003879;28;20211;-71
2023/06/29 12:30:33;;;;;;;4.15;2.17;;;29.60;80.90;;;;;;5004860;28;20656;-71
2023/06/29 12:33:00;;;;;;;6.28;2.30;;;29.50;81.00;;;;;;5005739;28;20042;-71
2023/06/29 12:35:26;;;;;;;5.22;2.22;;;29.40;81.30;;;;;;5004553;28;20037;-71
2023/06/29 12:37:53;;;;;;;4.13;1.77;;;29.50;80.50;;;;;;5003957;28;20029;-71
2023/06/29 12:40:18;;;;;;;6.15;1.90;;;29.70;81.20;;;;;;5002935;28;20038;-71
2023/06/29 12:42:44;;;;;;;5.10;2.40;;;29.50;80.60;;;;;;5001997;28;20040;-71
2023/06/29 12:45:10;;;;;;;6.07;2.03;;;29.40;80.80;;;;;;5005495;28;20025;-72